Time;durP1;ratioP1;P1;durP2;ratioP2;P2;SDS_P1;SDS_P2;PMS_P1;PMS_P2;Temp;Humidity;BMP_temperature;BMP_pressure;BME280_temperature;BME280_humidity;BME280_pressure;Samples;Min_cycle;Max_cycle;Signal;HPM_P1;HPM_P2
2022/02/22 00:00:25;702837.00;2.34;1212.16;17293.00;0.06;30.58;;;;;9.90;1.00;;;;;;2260325;61;1443;-86
2022/02/22 00:02:52;594806.00;1.98;1025.25;0.00;0.00;0.62;;;;;10.00;1.00;;;;;;2260387;61;1127;-86
2022/02/22 00:05:20;760149.00;2.53;1311.71;0.00;0.00;0.62;;;;;9.90;1.00;;;;;;2260338;61;1997;-86
2022/02/22 00:07:47;628603.00;2.10;1083.63;0.00;0.00;0.62;;;;;9.60;1.00;;;;;;2260302;61;1119;-84
2022/02/22 00:10:15;601708.00;2.01;1037.17;0.00;0.00;0.62;;;;;9.30;1.00;;;;;;2260259;61;1735;-85
2022/02/22 00:12:42;614390.00;2.05;1059.07;0.00;0.00;0.62;;;;;9.40;1.00;;;;;;2260379;61;1099;-85
2022/02/22 00:15:11;651703.00;2.17;1123.58;0.00;0.00;0.62;;;;;9.50;1.00;;;;;;2260358;61;1002;-86
2022/02/22 00:17:39;684565.00;2.28;1180.48;0.00;0.00;0.62;;;;;9.20;1.00;;;;;;2260305;61;1022;-85
2022/02/22 00:20:09;580805.00;1.94;1001.09;0.00;0.00;0.62;;;;;9.40;1.00;;;;;;2260292;61;1380;-86
2022/02/22 00:22:37;593681.00;1.98;1023.31;0.00;0.00;0.62;;;;;9.30;1.00;;;;;;2260340;61;1256;-85
2022/02/22 00:25:06;727076.00;2.42;1254.22;0.00;0.00;0.62;;;;;9.30;1.00;;;;;;2260297;61;1119;-86
2022/02/22 00:27:33;686214.00;2.29;1183.34;0.00;0.00;0.62;;;;;9.50;1.00;;;;;;2260333;61;1063;-87
2022/02/22 00:29:59;117860000.00;392.87;66318152.00;117135224.00;390.45;65101128.00;;;;;9.30;1.00;;;;;;2260171;61;1299;-86
2022/02/22 00:32:26;659975.00;2.20;1137.90;25493.00;0.08;44.78;;;;;9.50;1.00;;;;;;2260302;61;1050;-86
2022/02/22 00:34:53;617324.00;2.06;1064.14;0.00;0.00;0.62;;;;;9.60;1.00;;;;;;2260274;61;1144;-85
2022/02/22 00:37:20;512995.00;1.71;884.20;0.00;0.00;0.62;;;;;9.80;1.00;;;;;;2260277;61;1054;-86
2022/02/22 00:39:48;706167.00;2.35;1217.93;0.00;0.00;0.62;;;;;9.70;1.00;;;;;;2260173;61;1307;-86
2022/02/22 00:42:15;847814.00;2.83;1464.64;101176.00;0.34;175.60;;;;;9.70;1.00;;;;;;2260262;61;2420;-86
2022/02/22 00:44:42;634265.00;2.11;1093.42;0.00;0.00;0.62;;;;;10.00;1.00;;;;;;2260232;61;1120;-86
2022/02/22 00:47:09;117789480.00;392.63;66199072.00;27776.00;0.09;48.73;;;;;9.90;1.00;;;;;;2260214;61;2001;-86
2022/02/22 00:49:36;618107.00;2.06;1065.50;0.00;0.00;0.62;;;;;9.60;1.00;;;;;;2260219;61;1319;-85
2022/02/22 00:52:03;644793.00;2.15;1111.63;0.00;0.00;0.62;;;;;9.90;1.00;;;;;;2260246;61;1061;-86
2022/02/22 00:54:30;614592.00;2.05;1059.42;0.00;0.00;0.62;;;;;9.80;1.00;;;;;;2260255;61;1131;-86
2022/02/22 00:56:58;596749.00;1.99;1028.61;0.00;0.00;0.62;;;;;9.70;1.00;;;;;;2260216;61;1052;-86
2022/02/22 00:59:25;503494.00;1.68;867.84;0.00;0.00;0.62;;;;;9.90;1.00;;;;;;2260163;61;1363;-85
2022/02/22 01:01:52;831454.00;2.77;1436.04;0.00;0.00;0.62;;;;;10.20;1.00;;;;;;2260226;61;1075;-86
2022/02/22 01:04:19;640804.00;2.14;1104.73;0.00;0.00;0.62;;;;;10.50;1.00;;;;;;2260208;61;2258;-87
2022/02/22 01:06:46;462890.00;1.54;797.96;0.00;0.00;0.62;;;;;10.60;1.00;;;;;;2260173;61;1910;-86
2022/02/22 01:09:14;452861.00;1.51;780.70;0.00;0.00;0.62;;;;;10.80;1.00;;;;;;2260091;61;1409;-86
2022/02/22 01:11:42;118511792.00;395.04;67425512.00;76395.00;0.25;132.81;;;;;10.60;1.00;;;;;;2260061;61;1136;-86
2022/02/22 01:14:10;454452.00;1.51;783.44;0.00;0.00;0.62;;;;;10.20;1.00;;;;;;2260178;61;1077;-87
2022/02/22 01:16:37;615844.00;2.05;1061.59;17970.00;0.06;31.75;;;;;10.60;1.00;;;;;;2260152;61;1047;-86
2022/02/22 01:19:04;802096.00;2.67;1384.78;0.00;0.00;0.62;;;;;10.10;1.00;;;;;;2260119;61;1364;-86
2022/02/22 01:21:32;696589.00;2.32;1201.32;0.00;0.00;0.62;;;;;10.20;1.00;;;;;;2260153;61;1123;-86
2022/02/22 01:24:00;700253.00;2.33;1207.68;0.00;0.00;0.62;;;;;10.40;1.00;;;;;;2260113;61;959;-86
2022/02/22 01:26:27;532751.00;1.78;918.23;0.00;0.00;0.62;;;;;10.40;1.00;;;;;;2260140;61;1973;-86
2022/02/22 01:28:54;709510.00;2.37;1223.73;14623.00;0.05;25.96;;;;;10.60;1.00;;;;;;2260075;61;1286;-86
2022/02/22 01:31:23;403732.00;1.35;696.22;0.00;0.00;0.62;;;;;10.70;1.00;;;;;;2260135;61;1111;-86
2022/02/22 01:33:54;549185.00;1.83;946.55;0.00;0.00;0.62;;;;;10.90;1.00;;;;;;2260097;61;1090;-86
2022/02/22 01:36:21;701898.00;2.34;1210.53;0.00;0.00;0.62;;;;;10.70;1.00;;;;;;2260207;61;996;-86
2022/02/22 01:38:54;614114.00;2.05;1058.60;0.00;0.00;0.62;;;;;10.90;1.00;;;;;;2259664;61;1272;-85
2022/02/22 01:41:23;937932.00;3.13;1622.84;83024.00;0.28;144.26;;;;;11.00;1.00;;;;;;2260034;61;960;-86
2022/02/22 01:43:50;773777.00;2.58;1335.43;88113.00;0.29;153.05;;;;;10.90;1.00;;;;;;2260049;61;1577;-86
2022/02/22 01:46:17;778167.00;2.59;1343.07;122882.00;0.41;213.05;;;;;10.80;1.00;;;;;;2259962;61;1989;-87
2022/02/22 01:48:45;710377.00;2.37;1225.24;94834.00;0.32;164.65;;;;;10.80;1.00;;;;;;2260042;61;1345;-86
2022/02/22 01:51:12;823552.00;2.75;1422.23;88605.00;0.30;153.90;;;;;10.50;1.00;;;;;;2260063;61;1057;-86
2022/02/22 01:53:41;855942.00;2.85;1478.87;116257.00;0.39;201.63;;;;;10.70;1.00;;;;;;2260023;61;1037;-86
2022/02/22 01:56:09;662686.00;2.21;1142.59;83339.00;0.28;144.80;;;;;10.80;1.00;;;;;;2259925;61;1569;-86
2022/02/22 01:58:36;622337.00;2.07;1072.80;92776.00;0.31;161.10;;;;;11.00;1.00;;;;;;2260011;61;1401;-86
2022/02/22 02:01:04;668683.00;2.23;1152.97;74661.00;0.25;129.81;;;;;10.90;1.00;;;;;;2260013;61;1104;-86
2022/02/22 02:03:31;814592.00;2.72;1406.58;86105.00;0.29;149.58;;;;;11.00;1.00;;;;;;2259945;61;1540;-85
2022/02/22 02:05:59;771704.00;2.57;1331.82;88338.00;0.29;153.44;;;;;11.20;1.00;;;;;;2259869;61;1993;-86
2022/02/22 02:08:26;728522.00;2.43;1256.74;0.00;0.00;0.62;;;;;11.00;1.00;;;;;;2259892;61;1577;-85
2022/02/22 02:10:54;723921.00;2.41;1248.75;0.00;0.00;0.62;;;;;10.60;1.00;;;;;;2260058;61;996;-85
2022/02/22 02:13:21;731428.00;2.44;1261.78;0.00;0.00;0.62;;;;;10.10;1.00;;;;;;2259992;61;1148;-86
2022/02/22 02:15:48;625650.00;2.09;1078.53;0.00;0.00;0.62;;;;;9.90;1.00;;;;;;2259975;61;1078;-85
2022/02/22 02:18:15;584745.00;1.95;1007.89;0.00;0.00;0.62;;;;;9.50;1.00;;;;;;2259950;61;1255;-86
2022/02/22 02:20:41;706582.00;2.36;1218.65;0.00;0.00;0.62;;;;;9.20;1.00;;;;;;2259994;61;940;-85
2022/02/22 02:23:10;682960.00;2.28;1177.70;24357.00;0.08;42.81;;;;;9.60;1.00;;;;;;2259916;61;1077;-86
2022/02/22 02:25:37;631420.00;2.10;1088.50;26226.00;0.09;46.05;;;;;10.00;1.00;;;;;;2260488;61;1084;-86
2022/02/22 02:28:06;856190.00;2.85;1479.30;25963.00;0.09;45.59;;;;;10.30;1.00;;;;;;2260615;61;2011;-85
2022/02/22 02:30:33;465462.00;1.55;802.38;0.00;0.00;0.62;;;;;10.20;1.00;;;;;;2260681;61;1061;-85
2022/02/22 02:32:59;490489.00;1.63;845.45;0.00;0.00;0.62;;;;;10.50;1.00;;;;;;2260649;61;1119;-86
2022/02/22 02:35:27;610483.00;2.03;1052.32;0.00;0.00;0.62;;;;;10.60;1.00;;;;;;2260641;61;1099;-85
2022/02/22 02:37:54;654817.00;2.18;1128.97;14923.00;0.05;26.48;;;;;9.80;1.00;;;;;;2260626;61;1439;-86
2022/02/22 02:40:22;1121899.00;3.74;1949.63;126108.00;0.42;218.62;;;;;10.10;1.00;;;;;;2260550;61;1404;-86
2022/02/22 02:42:49;118706504.00;395.69;67758704.00;0.00;0.00;0.62;;;;;10.30;1.00;;;;;;2260621;61;1063;-86
2022/02/22 02:45:16;523698.00;1.75;902.63;0.00;0.00;0.62;;;;;10.40;1.00;;;;;;2260660;61;1159;-86
2022/02/22 02:47:44;586218.00;1.95;1010.43;0.00;0.00;0.62;;;;;10.20;1.00;;;;;;2260587;61;1992;-85
2022/02/22 02:50:12;710109.00;2.37;1224.77;0.00;0.00;0.62;;;;;10.30;1.00;;;;;;2260567;61;1388;-85
2022/02/22 02:52:39;486526.00;1.62;838.63;0.00;0.00;0.62;;;;;10.40;1.00;;;;;;2260535;61;2083;-86
2022/02/22 02:55:10;531647.00;1.77;916.33;0.00;0.00;0.62;;;;;10.10;1.00;;;;;;2260640;61;1454;-84
2022/02/22 02:57:38;710961.00;2.37;1226.25;61715.00;0.21;107.44;;;;;10.20;1.00;;;;;;2260523;61;1436;-85
2022/02/22 03:00:08;542799.00;1.81;935.55;0.00;0.00;0.62;;;;;9.50;1.00;;;;;;2260552;61;1462;-86
2022/02/22 03:02:35;746110.00;2.49;1287.29;0.00;0.00;0.62;;;;;9.00;1.00;;;;;;2260553;61;1107;-85
2022/02/22 03:05:03;978497.00;3.26;1694.42;0.00;0.00;0.62;;;;;8.60;1.00;;;;;;2260470;61;1122;-85
2022/02/22 03:07:30;543198.00;1.81;936.23;0.00;0.00;0.62;;;;;8.60;1.00;;;;;;2260460;61;1924;-85
2022/02/22 03:09:57;953637.00;3.18;1650.53;26850.00;0.09;47.13;;;;;8.70;1.00;;;;;;2260432;61;1476;-85
2022/02/22 03:12:24;1599855.00;5.33;2832.46;56098.00;0.19;97.73;;;;;8.50;1.00;;;;;;2260554;61;1131;-86
2022/02/22 03:14:52;1089323.00;3.63;1891.34;28658.00;0.10;50.26;;;;;7.90;1.00;;;;;;2260523;61;1072;-85
2022/02/22 03:17:19;1273183.00;4.24;2223.11;37647.00;0.13;65.82;;;;;7.80;1.00;;;;;;2260521;61;1174;-86
2022/02/22 03:19:46;927093.00;3.09;1603.76;15512.00;0.05;27.50;;;;;7.80;1.00;;;;;;2260502;61;1289;-85
2022/02/22 03:22:13;1473270.00;4.91;2592.92;127512.00;0.43;221.04;;;;;7.90;1.00;;;;;;2260518;61;1143;-85
2022/02/22 03:24:42;1517727.00;5.06;2676.52;110143.00;0.37;191.08;;;;;7.90;1.00;;;;;;2260506;61;1100;-85
2022/02/22 03:27:08;1813612.00;6.05;3248.37;194285.00;0.65;336.09;;;;;7.90;1.00;;;;;;2260454;61;1911;-86
2022/02/22 03:29:35;684142.00;2.28;1179.75;89802.00;0.30;155.97;;;;;7.70;1.00;;;;;;2260447;61;1274;-85
2022/02/22 03:32:04;789096.00;2.63;1362.11;94713.00;0.32;164.45;;;;;7.70;1.00;;;;;;2260477;61;1024;-86
2022/02/22 03:34:31;988899.00;3.30;1712.82;91156.00;0.30;158.30;;;;;7.40;1.00;;;;;;2260489;61;1107;-86
2022/02/22 03:36:58;806896.00;2.69;1393.15;89218.00;0.30;154.96;;;;;7.40;1.00;;;;;;2260419;61;1122;-86
2022/02/22 03:39:25;621410.00;2.07;1071.20;71576.00;0.24;124.48;;;;;7.30;1.00;;;;;;2260417;61;1388;-86
2022/02/22 03:41:52;117765624.00;392.55;66158832.00;0.00;0.00;0.62;;;;;7.20;1.00;;;;;;2260501;61;1113;-86
2022/02/22 03:44:19;788362.00;2.63;1360.83;0.00;0.00;0.62;;;;;6.80;1.00;;;;;;2260442;61;1130;-86
2022/02/22 03:46:46;937199.00;3.12;1621.55;4453.00;0.01;8.34;;;;;6.90;1.00;;;;;;2260461;61;2032;-86
2022/02/22 03:49:14;883348.00;2.94;1526.89;13071.00;0.04;23.27;;;;;7.40;1.00;;;;;;2260376;61;1781;-86
2022/02/22 03:51:41;750209.00;2.50;1294.42;10575.00;0.04;18.95;;;;;8.30;1.00;;;;;;2260454;61;1123;-86
2022/02/22 03:54:08;570657.00;1.90;983.58;0.00;0.00;0.62;;;;;8.40;1.00;;;;;;2260328;61;2266;-86
2022/02/22 03:56:35;701719.00;2.34;1210.22;0.00;0.00;0.62;;;;;8.10;1.00;;;;;;2260439;61;1125;-86
2022/02/22 03:59:02;593978.00;1.98;1023.82;0.00;0.00;0.62;;;;;7.90;1.00;;;;;;2260324;61;2154;-85
2022/02/22 04:01:29;729942.00;2.43;1259.20;24796.00;0.08;43.57;;;;;7.60;1.00;;;;;;2260372;61;1078;-86
2022/02/22 04:03:55;739003.00;2.46;1274.94;0.00;0.00;0.62;;;;;7.60;1.00;;;;;;2260428;61;1068;-86
2022/02/22 04:06:24;731269.00;2.44;1261.51;742.00;0.00;1.91;;;;;8.20;1.00;;;;;;2260367;61;1998;-86
2022/02/22 04:08:51;598611.00;2.00;1031.82;0.00;0.00;0.62;;;;;7.70;1.00;;;;;;2260319;61;1416;-85
2022/02/22 04:11:18;687738.00;2.29;1185.98;0.00;0.00;0.62;;;;;8.00;1.00;;;;;;2260367;61;1199;-86
2022/02/22 04:13:44;680789.00;2.27;1173.94;0.00;0.00;0.62;;;;;8.00;1.00;;;;;;2260306;61;1132;-86
2022/02/22 04:16:11;589284.00;1.96;1015.72;0.00;0.00;0.62;;;;;8.30;1.00;;;;;;2260282;61;1174;-86
2022/02/22 04:18:38;589964.00;1.97;1016.89;0.00;0.00;0.62;;;;;8.20;1.00;;;;;;2260254;61;1391;-86
2022/02/22 04:21:05;550210.00;1.83;948.32;0.00;0.00;0.62;;;;;8.60;1.00;;;;;;2260285;61;1006;-86
2022/02/22 04:23:34;750880.00;2.50;1295.59;0.00;0.00;0.62;;;;;9.30;1.00;;;;;;2260358;61;1018;-86
2022/02/22 04:26:01;735891.00;2.45;1269.54;10095.00;0.03;18.11;;;;;9.50;1.00;;;;;;2260288;61;1148;-86
2022/02/22 04:28:28;638618.00;2.13;1100.95;0.00;0.00;0.62;;;;;9.90;1.00;;;;;;2260233;61;2005;-85
2022/02/22 04:30:54;623610.00;2.08;1075.00;0.00;0.00;0.62;;;;;9.90;1.00;;;;;;2260296;61;1030;-86
2022/02/22 04:33:21;729312.00;2.43;1258.11;36318.00;0.12;63.52;;;;;9.10;1.00;;;;;;2260308;61;1094;-86
2022/02/22 04:35:48;848430.00;2.83;1465.72;44763.00;0.15;78.13;;;;;8.60;1.00;;;;;;2260263;61;1082;-85
2022/02/22 04:38:15;676928.00;2.26;1167.25;0.00;0.00;0.62;;;;;8.30;1.00;;;;;;2260168;61;1411;-85
2022/02/22 04:40:44;773772.00;2.58;1335.42;73974.00;0.25;128.63;;;;;8.40;1.00;;;;;;2260255;61;1138;-86
2022/02/22 04:43:10;603573.00;2.01;1040.39;0.00;0.00;0.62;;;;;8.30;1.00;;;;;;2260257;61;1126;-86
2022/02/22 04:45:37;607445.00;2.02;1047.08;0.00;0.00;0.62;;;;;8.80;1.00;;;;;;2260225;61;1111;-87
2022/02/22 04:48:05;608779.00;2.03;1049.38;0.00;0.00;0.62;;;;;9.20;1.00;;;;;;2259934;61;1908;-86
2022/02/22 04:50:33;539932.00;1.80;930.61;0.00;0.00;0.62;;;;;9.60;1.00;;;;;;2260194;61;912;-87
2022/02/22 04:53:00;467378.00;1.56;805.68;0.00;0.00;0.62;;;;;10.00;1.00;;;;;;2260201;61;1131;-86
2022/02/22 04:55:28;558171.00;1.86;962.05;0.00;0.00;0.62;;;;;10.20;1.00;;;;;;2260203;61;1079;-86
2022/02/22 04:57:56;118613608.00;395.38;67599600.00;65642.00;0.22;114.23;;;;;10.20;1.00;;;;;;2260229;61;999;-86
2022/02/22 05:00:23;615615.00;2.05;1061.19;0.00;0.00;0.62;;;;;10.10;1.00;;;;;;2260143;61;1710;-86
2022/02/22 05:02:50;609873.00;2.03;1051.27;0.00;0.00;0.62;;;;;9.60;1.00;;;;;;2260161;61;1114;-86
2022/02/22 05:05:18;584677.00;1.95;1007.77;0.00;0.00;0.62;;;;;9.20;1.00;;;;;;2260116;61;1079;-85
2022/02/22 05:07:45;744731.00;2.48;1284.90;0.00;0.00;0.62;;;;;9.00;1.00;;;;;;2260079;61;1991;-86
2022/02/22 05:10:16;753640.00;2.51;1300.39;0.00;0.00;0.62;;;;;9.10;1.00;;;;;;2260078;61;1445;-86
2022/02/22 05:12:43;1038505.00;3.46;1800.79;15507.00;0.05;27.49;;;;;9.00;1.00;;;;;;2260115;61;1824;-86
2022/02/22 05:15:12;588539.00;1.96;1014.43;0.00;0.00;0.62;;;;;9.20;1.00;;;;;;2260161;61;992;-86
2022/02/22 05:17:39;582706.00;1.94;1004.37;0.00;0.00;0.62;;;;;9.30;1.00;;;;;;2260156;61;1058;-86
2022/02/22 05:20:08;595209.00;1.98;1025.95;0.00;0.00;0.62;;;;;8.70;1.00;;;;;;2260058;61;1379;-86
2022/02/22 05:22:40;711695.00;2.37;1227.52;0.00;0.00;0.62;;;;;8.50;1.00;;;;;;2260100;61;1755;-85
2022/02/22 05:25:11;776133.00;2.59;1339.53;0.00;0.00;0.62;;;;;8.10;1.00;;;;;;2260148;61;1135;-86
2022/02/22 05:27:38;891165.00;2.97;1540.61;0.00;0.00;0.62;;;;;7.90;1.00;;;;;;2260063;61;2016;-85
2022/02/22 05:30:07;674983.00;2.25;1163.88;0.00;0.00;0.62;;;;;7.90;1.00;;;;;;2260083;61;1367;-86
2022/02/22 05:32:35;834456.00;2.78;1441.28;0.00;0.00;0.62;;;;;8.00;1.00;;;;;;2260107;61;1118;-86
2022/02/22 05:35:04;501007.00;1.67;863.56;0.00;0.00;0.62;;;;;8.00;1.00;;;;;;2260080;61;1105;-86
2022/02/22 05:37:32;808470.00;2.69;1395.90;0.00;0.00;0.62;;;;;8.50;1.00;;;;;;2260157;61;1046;-86
2022/02/22 05:39:59;626567.00;2.09;1080.12;0.00;0.00;0.62;;;;;8.70;1.00;;;;;;2259989;61;2331;-86
2022/02/22 05:42:28;118603296.00;395.34;67581960.00;0.00;0.00;0.62;;;;;8.80;1.00;;;;;;2260106;61;1362;-87
2022/02/22 05:44:56;562470.00;1.87;969.46;0.00;0.00;0.62;;;;;9.10;1.00;;;;;;2260099;61;996;-86
2022/02/22 05:47:23;582946.00;1.94;1004.78;0.00;0.00;0.62;;;;;9.20;1.00;;;;;;2259993;61;2010;-86
2022/02/22 05:49:51;672033.00;2.24;1158.77;0.00;0.00;0.62;;;;;9.00;1.00;;;;;;2260030;61;1274;-86
2022/02/22 05:52:21;582717.00;1.94;1004.39;0.00;0.00;0.62;;;;;8.60;1.00;;;;;;2259984;61;1578;-86
2022/02/22 05:54:47;909029.00;3.03;1571.98;63449.00;0.21;110.44;;;;;8.70;1.00;;;;;;2259953;61;1138;-85
2022/02/22 05:57:14;693350.00;2.31;1195.71;24059.00;0.08;42.30;;;;;8.90;1.00;;;;;;2260026;61;1096;-86
2022/02/22 05:59:45;600528.00;2.00;1035.13;0.00;0.00;0.62;;;;;9.10;1.00;;;;;;2260507;61;1371;-87
2022/02/22 06:02:12;749793.00;2.50;1293.70;0.00;0.00;0.62;;;;;9.40;1.00;;;;;;2260579;61;1444;-86
2022/02/22 06:04:39;646192.00;2.15;1114.05;0.00;0.00;0.62;;;;;9.60;1.00;;;;;;2260645;61;2027;-85
2022/02/22 06:07:07;866423.00;2.89;1497.22;89952.00;0.30;156.22;;;;;8.80;1.00;;;;;;2260529;61;1931;-86
2022/02/22 06:09:34;598681.00;2.00;1031.94;0.00;0.00;0.62;;;;;9.00;1.00;;;;;;2260708;61;1471;-87
2022/02/22 06:12:01;615701.00;2.05;1061.34;0.00;0.00;0.62;;;;;9.00;1.00;;;;;;2260774;61;899;-86
2022/02/22 06:14:28;507491.00;1.69;874.72;0.00;0.00;0.62;;;;;8.80;1.00;;;;;;2260638;61;1052;-86
2022/02/22 06:16:56;716185.00;2.39;1235.32;0.00;0.00;0.62;;;;;8.50;1.00;;;;;;2260700;61;1081;-86
2022/02/22 06:19:24;737179.00;2.46;1271.77;0.00;0.00;0.62;;;;;8.50;1.00;;;;;;2260544;61;1504;-86
2022/02/22 06:21:51;514730.00;1.72;887.19;0.00;0.00;0.62;;;;;8.90;1.00;;;;;;2260575;61;1695;-87
2022/02/22 06:24:19;805315.00;2.68;1390.39;49070.00;0.16;85.58;;;;;9.00;1.00;;;;;;2260639;61;1047;-87
2022/02/22 06:26:46;616791.00;2.06;1063.22;0.00;0.00;0.62;;;;;9.10;1.00;;;;;;2260556;61;1622;-85
2022/02/22 06:29:15;510552.00;1.70;879.99;0.00;0.00;0.62;;;;;9.00;1.00;;;;;;2260491;61;1922;-86
2022/02/22 06:31:45;480811.00;1.60;828.79;0.00;0.00;0.62;;;;;8.90;1.00;;;;;;2260486;61;1374;-87
2022/02/22 06:34:12;975558.00;3.25;1689.23;115261.00;0.38;199.91;;;;;8.80;1.00;;;;;;2260331;61;925;-86
2022/02/22 06:36:39;800090.00;2.67;1381.28;0.00;0.00;0.62;;;;;8.80;1.00;;;;;;2260588;61;985;-86
2022/02/22 06:39:06;574388.00;1.91;990.02;0.00;0.00;0.62;;;;;8.70;1.00;;;;;;2260516;61;1254;-86
2022/02/22 06:41:35;736295.00;2.45;1270.24;4379.00;0.01;8.21;;;;;8.70;1.00;;;;;;2260663;61;1078;-86
2022/02/22 06:44:02;638768.00;2.13;1101.21;0.00;0.00;0.62;;;;;8.30;1.00;;;;;;2260576;61;1118;-87
2022/02/22 06:46:29;749195.00;2.50;1292.66;0.00;0.00;0.62;;;;;8.60;1.00;;;;;;2260610;61;1119;-86
2022/02/22 06:48:56;606680.00;2.02;1045.76;0.00;0.00;0.62;;;;;9.00;1.00;;;;;;2260434;61;1915;-87
2022/02/22 06:51:23;515954.00;1.72;889.30;0.00;0.00;0.62;;;;;8.90;1.00;;;;;;2260531;61;1119;-86
2022/02/22 06:53:51;683924.00;2.28;1179.37;0.00;0.00;0.62;;;;;8.80;1.00;;;;;;2260551;61;2079;-88
2022/02/22 06:56:17;685811.00;2.29;1182.64;0.00;0.00;0.62;;;;;8.80;1.00;;;;;;2260549;61;1075;-87
2022/02/22 06:58:47;682757.00;2.28;1177.35;0.00;0.00;0.62;;;;;8.70;1.00;;;;;;2260584;61;1384;-88
2022/02/22 07:01:14;669063.00;2.23;1153.63;0.00;0.00;0.62;;;;;9.00;1.00;;;;;;2260464;61;1510;-87
2022/02/22 07:03:40;760078.00;2.53;1311.59;24124.00;0.08;42.41;;;;;9.20;1.00;;;;;;2260529;61;1101;-87
2022/02/22 07:06:07;634775.00;2.12;1094.30;0.00;0.00;0.62;;;;;9.50;1.00;;;;;;2260499;61;1107;-86
2022/02/22 07:08:34;542467.00;1.81;934.97;0.00;0.00;0.62;;;;;9.70;1.00;;;;;;2260415;61;1997;-87
2022/02/22 07:11:01;560156.00;1.87;965.47;0.00;0.00;0.62;;;;;9.50;1.00;;;;;;2260309;61;1100;-87
2022/02/22 07:13:28;645358.00;2.15;1112.61;0.00;0.00;0.62;;;;;9.60;1.00;;;;;;2260482;61;1066;-87
2022/02/22 07:15:56;882828.00;2.94;1525.98;91087.00;0.30;158.18;;;;;9.60;1.00;;;;;;2260502;61;1083;-87
2022/02/22 07:18:23;689139.00;2.30;1188.41;0.00;0.00;0.62;;;;;9.50;1.00;;;;;;2260407;61;2022;-86
2022/02/22 07:20:51;498800.00;1.66;859.76;0.00;0.00;0.62;;;;;9.40;1.00;;;;;;2260457;61;998;-87
2022/02/22 07:23:17;577513.00;1.93;995.41;0.00;0.00;0.62;;;;;9.30;1.00;;;;;;2260470;61;1060;-87
2022/02/22 07:25:44;934893.00;3.12;1617.49;6012.00;0.02;11.04;;;;;9.40;1.00;;;;;;2260481;61;1119;-87
2022/02/22 07:28:12;676196.00;2.25;1165.98;0.00;0.00;0.62;;;;;9.40;1.00;;;;;;2260394;61;1987;-86
2022/02/22 07:30:39;620421.00;2.07;1069.49;16845.00;0.06;29.81;;;;;9.60;1.00;;;;;;2260395;61;1076;-86
2022/02/22 07:33:10;576308.00;1.92;993.33;34370.00;0.11;60.15;;;;;10.40;1.00;;;;;;2260344;61;1393;-87
2022/02/22 07:35:37;529066.00;1.76;911.88;0.00;0.00;0.62;;;;;10.90;1.00;;;;;;2260304;61;1488;-86
2022/02/22 07:38:06;117593288.00;391.98;65868552.00;41569.00;0.14;72.60;;;;;11.30;1.00;;;;;;2260313;61;1118;-86
2022/02/22 07:40:33;477557.00;1.59;823.19;0.00;0.00;0.62;;;;;11.20;1.00;;;;;;2260357;61;1160;-86
2022/02/22 07:43:06;809051.00;2.70;1396.91;0.00;0.00;0.62;;;;;11.40;1.00;;;;;;2260145;61;1138;-86
2022/02/22 07:45:46;546231.00;1.82;941.46;0.00;0.00;0.62;;;;;11.50;1.00;;;;;;2260342;61;1528;-85
2022/02/22 07:48:36;1050243.00;3.50;1821.66;39273.00;0.13;68.63;;;;;11.00;1.00;;;;;;2260344;61;1919;-87
2022/02/22 07:51:15;904864.00;3.02;1564.66;7495.00;0.02;13.61;;;;;10.70;1.00;;;;;;2260193;61;1463;-87
2022/02/22 07:53:49;1727418.00;5.76;3078.82;95629.00;0.32;166.03;;;;;10.90;1.00;;;;;;2260266;61;1415;-85
2022/02/22 07:56:28;1602055.00;5.34;2836.67;160869.00;0.54;278.54;;;;;11.00;1.00;;;;;;2260337;61;1418;-87
2022/02/22 07:58:58;1079885.00;3.60;1874.49;127407.00;0.42;220.86;;;;;10.60;1.00;;;;;;2260166;61;1475;-86
2022/02/22 08:01:27;1268064.00;4.23;2213.78;190253.00;0.63;329.14;;;;;10.80;1.00;;;;;;2260220;61;1537;-87
2022/02/22 08:04:00;647032.00;2.16;1115.50;0.00;0.00;0.62;;;;;10.30;1.00;;;;;;2260220;61;1611;-86
2022/02/22 08:06:30;847998.00;2.83;1464.96;47589.00;0.16;83.02;;;;;9.90;1.00;;;;;;2260322;61;1152;-87
2022/02/22 08:08:59;764435.00;2.55;1319.17;0.00;0.00;0.62;;;;;10.00;1.00;;;;;;2260083;61;1986;-86
2022/02/22 08:11:31;915119.00;3.05;1582.69;0.00;0.00;0.62;;;;;10.40;1.00;;;;;;2260142;61;1547;-86
2022/02/22 08:14:13;906754.00;3.02;1567.99;36384.00;0.12;63.63;;;;;10.80;1.00;;;;;;2260114;61;1439;-86
2022/02/22 08:16:47;1079346.00;3.60;1873.53;99032.00;0.33;171.90;;;;;11.10;1.00;;;;;;2260240;61;1038;-86
2022/02/22 08:19:18;649295.00;2.16;1119.42;0.00;0.00;0.62;;;;;11.00;1.00;;;;;;2260166;61;1413;-87
2022/02/22 08:21:55;706601.00;2.36;1218.69;59283.00;0.20;103.24;;;;;11.10;1.00;;;;;;2260211;61;1470;-86
2022/02/22 08:27:19;1128506.00;3.76;1961.48;93582.00;0.31;162.49;;;;;11.50;1.00;;;;;;2247675;61;1449;-87
2022/02/22 08:29:49;2096140.00;6.99;3823.64;119773.00;0.40;207.69;;;;;11.00;1.00;;;;;;2259487;61;1928;-87
2022/02/22 08:32:21;1569152.00;5.23;2773.93;178060.00;0.59;308.15;;;;;11.10;1.00;;;;;;2259938;61;1549;-88
2022/02/22 08:34:52;1254749.00;4.18;2189.53;148775.00;0.50;257.70;;;;;11.20;1.00;;;;;;2260106;61;1621;-89
2022/02/22 08:37:30;1211476.00;4.04;2110.98;96165.00;0.32;166.95;;;;;11.00;1.00;;;;;;2260209;61;1570;-89
2022/02/22 08:42:42;286788.00;0.96;495.21;0.00;0.00;0.62;;;;;12.00;1.00;;;;;;2269477;61;1382;-85
2022/02/22 08:45:11;341382.00;1.14;589.05;9259.00;0.03;16.67;;;;;12.40;1.00;;;;;;2268135;61;1690;-86
2022/02/22 08:47:44;264507.00;0.88;456.90;26404.00;0.09;46.36;;;;;12.60;1.00;;;;;;2268335;61;1285;-86
2022/02/22 08:50:37;475863.00;1.59;820.28;98087.00;0.33;170.27;;;;;12.50;1.00;;;;;;2267939;61;1372;-87
2022/02/22 08:53:21;134602.00;0.45;233.26;0.00;0.00;0.62;;;;;12.70;1.00;;;;;;2264417;61;1463;-86
2022/02/22 08:55:54;142039.00;0.47;246.09;0.00;0.00;0.62;;;;;12.20;1.00;;;;;;2264485;61;941;-86
2022/02/22 08:58:21;160156.00;0.53;277.31;617.00;0.00;1.69;;;;;12.20;1.00;;;;;;2264346;61;1586;-86
2022/02/22 09:00:50;293413.00;0.98;506.60;0.00;0.00;0.62;;;;;12.00;1.00;;;;;;2264418;61;1351;-85
2022/02/22 09:03:17;143869.00;0.48;249.24;0.00;0.00;0.62;;;;;11.90;1.00;;;;;;2264385;61;1806;-88
2022/02/22 09:05:48;425995.00;1.42;734.50;24078.00;0.08;42.33;;;;;11.80;1.00;;;;;;2264490;61;1150;-87
2022/02/22 09:08:16;422716.00;1.41;728.86;51340.00;0.17;89.50;;;;;11.80;1.00;;;;;;2264378;61;1990;-87
2022/02/22 09:10:49;355989.00;1.19;614.15;0.00;0.00;0.62;;;;;12.10;1.00;;;;;;2264202;61;1794;-87
2022/02/22 09:13:17;182217.00;0.61;315.31;0.00;0.00;0.62;;;;;11.40;1.00;;;;;;2264328;61;1053;-86
2022/02/22 09:15:44;233706.00;0.78;403.92;0.00;0.00;0.62;;;;;11.60;1.00;;;;;;2264448;61;992;-87
2022/02/22 09:18:16;277451.00;0.92;479.15;0.00;0.00;0.62;;;;;11.70;1.00;;;;;;2264369;61;1005;-85
2022/02/22 09:20:45;319967.00;1.07;552.24;39963.00;0.13;69.82;;;;;12.00;1.00;;;;;;2264264;61;1510;-88
2022/02/22 09:23:12;378643.00;1.26;653.09;0.00;0.00;0.62;;;;;12.00;1.00;;;;;;2264401;61;1136;-86
2022/02/22 09:25:39;24068.00;0.08;42.31;0.00;0.00;0.62;;;;;12.20;1.00;;;;;;2264323;61;1673;-87
2022/02/22 09:28:10;99262.00;0.33;172.30;0.00;0.00;0.62;;;;;11.90;1.00;;;;;;2264343;61;1993;-87
2022/02/22 09:30:45;55314.00;0.18;96.38;0.00;0.00;0.62;;;;;11.50;1.00;;;;;;2264178;61;1566;-87
2022/02/22 09:33:12;200249.00;0.67;346.35;0.00;0.00;0.62;;;;;11.70;1.00;;;;;;2264432;61;1184;-89
2022/02/22 09:35:47;49727.00;0.17;86.71;0.00;0.00;0.62;;;;;12.00;1.00;;;;;;2265334;41;2134;-88
2022/02/22 09:38:19;244078.00;0.81;421.77;0.00;0.00;0.62;;;;;11.70;1.00;;;;;;2256933;61;1086;-88
2022/02/22 09:40:46;397766.00;1.33;685.96;92689.00;0.31;160.95;;;;;11.60;1.00;;;;;;2256956;61;1279;-87
2022/02/22 09:43:14;562310.00;1.87;969.18;92983.00;0.31;161.46;;;;;12.00;1.00;;;;;;2270357;41;2174;-86
2022/02/22 09:45:41;348423.00;1.16;601.15;85621.00;0.29;148.75;;;;;11.90;1.00;;;;;;2265683;61;1079;-85
2022/02/22 09:48:11;136696.00;0.46;236.87;0.00;0.00;0.62;;;;;11.80;1.00;;;;;;2264900;61;1992;-87
2022/02/22 09:50:38;323864.00;1.08;558.94;86418.00;0.29;150.12;;;;;11.70;1.00;;;;;;2324844;40;2239;-89
2022/02/22 09:53:13;312213.00;1.04;538.91;17043.00;0.06;30.15;;;;;11.80;1.00;;;;;;2265012;61;1166;-88
2022/02/22 09:55:44;128447.00;0.43;222.65;0.00;0.00;0.62;;;;;12.20;1.00;;;;;;2264927;61;1188;-88